sensor_id;sensor_type;location;lat;lon;timestamp;P1;durP1;ratioP1;P2;durP2;ratioP2
70297;SDS011;57702;44.420;20.298;2022-11-15T00:01:57;18.08;;;6.97;;
70297;SDS011;57702;44.420;20.298;2022-11-15T00:04:23;10.30;;;5.63;;
70297;SDS011;57702;44.420;20.298;2022-11-15T00:06:50;12.07;;;7.13;;
70297;SDS011;57702;44.420;20.298;2022-11-15T00:09:16;18.45;;;6.13;;
70297;SDS011;57702;44.420;20.298;2022-11-15T00:11:42;10.80;;;6.32;;
70297;SDS011;57702;44.420;20.298;2022-11-15T00:14:08;6.28;;;3.40;;
70297;SDS011;57702;44.420;20.298;2022-11-15T00:16:34;11.75;;;4.72;;
70297;SDS011;57702;44.420;20.298;2022-11-15T00:19:00;3.90;;;2.95;;
70297;SDS011;57702;44.420;20.298;2022-11-15T00:21:26;21.58;;;5.32;;
70297;SDS011;57702;44.420;20.298;2022-11-15T00:23:52;10.02;;;5.18;;
70297;SDS011;57702;44.420;20.298;2022-11-15T00:26:18;6.68;;;5.25;;
70297;SDS011;57702;44.420;20.298;2022-11-15T00:28:45;18.98;;;6.47;;
70297;SDS011;57702;44.420;20.298;2022-11-15T00:31:11;28.98;;;9.75;;
70297;SDS011;57702;44.420;20.298;2022-11-15T00:33:38;14.05;;;6.45;;
70297;SDS011;57702;44.420;20.298;2022-11-15T00:36:07;21.83;;;8.45;;
70297;SDS011;57702;44.420;20.298;2022-11-15T00:38:35;13.63;;;6.65;;
70297;SDS011;57702;44.420;20.298;2022-11-15T00:41:02;14.25;;;5.32;;
70297;SDS011;57702;44.420;20.298;2022-11-15T00:43:29;8.30;;;5.28;;
70297;SDS011;57702;44.420;20.298;2022-11-15T00:45:55;18.67;;;8.40;;
70297;SDS011;57702;44.420;20.298;2022-11-15T00:48:21;18.63;;;9.80;;
70297;SDS011;57702;44.420;20.298;2022-11-15T00:50:48;30.83;;;11.82;;
70297;SDS011;57702;44.420;20.298;2022-11-15T00:53:14;28.90;;;8.30;;
70297;SDS011;57702;44.420;20.298;2022-11-15T00:55:40;39.97;;;13.57;;
70297;SDS011;57702;44.420;20.298;2022-11-15T00:58:06;21.63;;;10.40;;
70297;SDS011;57702;44.420;20.298;2022-11-15T01:00:32;23.77;;;10.07;;
70297;SDS011;57702;44.420;20.298;2022-11-15T01:02:59;27.35;;;10.48;;
70297;SDS011;57702;44.420;20.298;2022-11-15T01:05:26;30.83;;;11.10;;
70297;SDS011;57702;44.420;20.298;2022-11-15T01:07:52;25.05;;;9.45;;
70297;SDS011;57702;44.420;20.298;2022-11-15T01:10:19;25.05;;;11.07;;
70297;SDS011;57702;44.420;20.298;2022-11-15T01:12:46;42.15;;;11.57;;
70297;SDS011;57702;44.420;20.298;2022-11-15T01:15:12;54.80;;;14.27;;
70297;SDS011;57702;44.420;20.298;2022-11-15T01:17:38;24.92;;;12.90;;
70297;SDS011;57702;44.420;20.298;2022-11-15T01:20:04;33.97;;;13.98;;
70297;SDS011;57702;44.420;20.298;2022-11-15T01:22:30;38.63;;;17.08;;
70297;SDS011;57702;44.420;20.298;2022-11-15T01:24:56;65.25;;;17.20;;
70297;SDS011;57702;44.420;20.298;2022-11-15T01:27:23;44.80;;;16.88;;
70297;SDS011;57702;44.420;20.298;2022-11-15T01:29:49;43.10;;;19.77;;
70297;SDS011;57702;44.420;20.298;2022-11-15T01:32:15;54.75;;;21.30;;
70297;SDS011;57702;44.420;20.298;2022-11-15T01:34:41;83.38;;;24.98;;
70297;SDS011;57702;44.420;20.298;2022-11-15T01:37:07;43.78;;;17.65;;
70297;SDS011;57702;44.420;20.298;2022-11-15T01:39:33;67.53;;;21.60;;
70297;SDS011;57702;44.420;20.298;2022-11-15T01:41:59;46.55;;;18.05;;
70297;SDS011;57702;44.420;20.298;2022-11-15T01:44:31;56.65;;;19.17;;
70297;SDS011;57702;44.420;20.298;2022-11-15T01:46:58;55.88;;;20.42;;
70297;SDS011;57702;44.420;20.298;2022-11-15T01:49:25;48.83;;;16.00;;
70297;SDS011;57702;44.420;20.298;2022-11-15T01:51:54;36.63;;;18.77;;
70297;SDS011;57702;44.420;20.298;2022-11-15T01:54:20;61.17;;;22.13;;
70297;SDS011;57702;44.420;20.298;2022-11-15T01:56:51;51.85;;;19.05;;
70297;SDS011;57702;44.420;20.298;2022-11-15T01:59:18;50.60;;;17.70;;
70297;SDS011;57702;44.420;20.298;2022-11-15T02:01:44;35.70;;;16.90;;
70297;SDS011;57702;44.420;20.298;2022-11-15T02:04:18;38.42;;;15.23;;
70297;SDS011;57702;44.420;20.298;2022-11-15T02:06:46;37.80;;;14.05;;
70297;SDS011;57702;44.420;20.298;2022-11-15T02:09:12;55.30;;;16.58;;
70297;SDS011;57702;44.420;20.298;2022-11-15T02:11:38;41.63;;;14.10;;
70297;SDS011;57702;44.420;20.298;2022-11-15T02:14:05;33.15;;;12.10;;
70297;SDS011;57702;44.420;20.298;2022-11-15T02:29:10;45.28;;;11.45;;
70297;SDS011;57702;44.420;20.298;2022-11-15T02:37:02;31.20;;;14.60;;
70297;SDS011;57702;44.420;20.298;2022-11-15T02:42:09;31.88;;;13.13;;
70297;SDS011;57702;44.420;20.298;2022-11-15T02:44:57;43.40;;;15.77;;
70297;SDS011;57702;44.420;20.298;2022-11-15T02:47:25;34.50;;;11.15;;
70297;SDS011;57702;44.420;20.298;2022-11-15T02:49:53;47.78;;;14.30;;
70297;SDS011;57702;44.420;20.298;2022-11-15T02:52:21;31.25;;;14.50;;
70297;SDS011;57702;44.420;20.298;2022-11-15T02:54:54;22.33;;;11.93;;
70297;SDS011;57702;44.420;20.298;2022-11-15T02:57:43;45.13;;;16.85;;
70297;SDS011;57702;44.420;20.298;2022-11-15T03:00:14;41.10;;;11.65;;
70297;SDS011;57702;44.420;20.298;2022-11-15T03:05:53;22.92;;;10.73;;
70297;SDS011;57702;44.420;20.298;2022-11-15T03:10:41;31.85;;;11.80;;
70297;SDS011;57702;44.420;20.298;2022-11-15T03:16:02;27.80;;;11.07;;
70297;SDS011;57702;44.420;20.298;2022-11-15T03:18:32;22.55;;;11.38;;
70297;SDS011;57702;44.420;20.298;2022-11-15T03:21:00;22.52;;;11.55;;
70297;SDS011;57702;44.420;20.298;2022-11-15T03:23:26;25.30;;;12.13;;
70297;SDS011;57702;44.420;20.298;2022-11-15T03:25:54;38.22;;;12.63;;
70297;SDS011;57702;44.420;20.298;2022-11-15T03:28:29;37.40;;;14.68;;
70297;SDS011;57702;44.420;20.298;2022-11-15T03:30:55;45.45;;;12.60;;
70297;SDS011;57702;44.420;20.298;2022-11-15T03:33:22;36.05;;;13.40;;
70297;SDS011;57702;44.420;20.298;2022-11-15T03:35:48;34.50;;;13.23;;
70297;SDS011;57702;44.420;20.298;2022-11-15T03:38:25;27.65;;;11.55;;
70297;SDS011;57702;44.420;20.298;2022-11-15T03:41:01;27.42;;;9.35;;
70297;SDS011;57702;44.420;20.298;2022-11-15T03:45:57;35.50;;;12.88;;
70297;SDS011;57702;44.420;20.298;2022-11-15T03:48:25;24.60;;;9.88;;
70297;SDS011;57702;44.420;20.298;2022-11-15T03:50:52;24.38;;;10.57;;
70297;SDS011;57702;44.420;20.298;2022-11-15T03:53:19;30.60;;;12.70;;
70297;SDS011;57702;44.420;20.298;2022-11-15T03:55:45;42.53;;;11.57;;
70297;SDS011;57702;44.420;20.298;2022-11-15T03:58:11;46.97;;;10.80;;
70297;SDS011;57702;44.420;20.298;2022-11-15T04:00:37;33.70;;;12.85;;
70297;SDS011;57702;44.420;20.298;2022-11-15T04:03:03;20.10;;;7.90;;
70297;SDS011;57702;44.420;20.298;2022-11-15T04:05:29;49.75;;;15.88;;
70297;SDS011;57702;44.420;20.298;2022-11-15T04:07:55;20.83;;;11.05;;
70297;SDS011;57702;44.420;20.298;2022-11-15T04:10:21;36.15;;;12.85;;
70297;SDS011;57702;44.420;20.298;2022-11-15T04:12:48;34.25;;;12.20;;
70297;SDS011;57702;44.420;20.298;2022-11-15T04:15:15;29.45;;;11.25;;
70297;SDS011;57702;44.420;20.298;2022-11-15T04:17:51;27.70;;;12.80;;
70297;SDS011;57702;44.420;20.298;2022-11-15T04:20:25;49.22;;;19.10;;
70297;SDS011;57702;44.420;20.298;2022-11-15T04:23:12;65.00;;;19.13;;
70297;SDS011;57702;44.420;20.298;2022-11-15T04:25:58;24.90;;;14.27;;
70297;SDS011;57702;44.420;20.298;2022-11-15T04:28:25;39.65;;;17.48;;
70297;SDS011;57702;44.420;20.298;2022-11-15T04:30:51;46.63;;;18.38;;
70297;SDS011;57702;44.420;20.298;2022-11-15T04:33:17;29.85;;;15.00;;
70297;SDS011;57702;44.420;20.298;2022-11-15T04:35:43;52.97;;;19.85;;
70297;SDS011;57702;44.420;20.298;2022-11-15T04:38:29;46.63;;;20.60;;
70297;SDS011;57702;44.420;20.298;2022-11-15T04:40:56;34.10;;;20.05;;
70297;SDS011;57702;44.420;20.298;2022-11-15T04:43:22;43.85;;;20.52;;
70297;SDS011;57702;44.420;20.298;2022-11-15T04:45:48;48.85;;;20.92;;
70297;SDS011;57702;44.420;20.298;2022-11-15T04:48:14;41.72;;;24.95;;
70297;SDS011;57702;44.420;20.298;2022-11-15T04:50:40;40.65;;;23.98;;
70297;SDS011;57702;44.420;20.298;2022-11-15T04:53:06;67.60;;;27.27;;
70297;SDS011;57702;44.420;20.298;2022-11-15T04:55:32;57.90;;;26.65;;
70297;SDS011;57702;44.420;20.298;2022-11-15T04:57:59;60.30;;;31.05;;
70297;SDS011;57702;44.420;20.298;2022-11-15T05:00:26;64.47;;;29.20;;
70297;SDS011;57702;44.420;20.298;2022-11-15T05:02:52;62.95;;;25.60;;
70297;SDS011;57702;44.420;20.298;2022-11-15T05:05:37;53.30;;;24.13;;
70297;SDS011;57702;44.420;20.298;2022-11-15T05:08:03;59.67;;;26.13;;
70297;SDS011;57702;44.420;20.298;2022-11-15T05:10:29;49.70;;;23.25;;
70297;SDS011;57702;44.420;20.298;2022-11-15T05:12:55;69.47;;;25.85;;
70297;SDS011;57702;44.420;20.298;2022-11-15T05:15:21;58.17;;;21.13;;
70297;SDS011;57702;44.420;20.298;2022-11-15T05:17:48;32.05;;;18.48;;
70297;SDS011;57702;44.420;20.298;2022-11-15T05:20:14;39.90;;;18.90;;
70297;SDS011;57702;44.420;20.298;2022-11-15T05:22:40;36.45;;;19.55;;
70297;SDS011;57702;44.420;20.298;2022-11-15T05:25:06;40.08;;;17.02;;
70297;SDS011;57702;44.420;20.298;2022-11-15T05:27:33;41.50;;;18.08;;
70297;SDS011;57702;44.420;20.298;2022-11-15T05:29:59;39.90;;;13.93;;
70297;SDS011;57702;44.420;20.298;2022-11-15T05:32:25;22.27;;;14.93;;
70297;SDS011;57702;44.420;20.298;2022-11-15T05:34:52;35.60;;;18.83;;
70297;SDS011;57702;44.420;20.298;2022-11-15T05:37:18;21.83;;;11.23;;
70297;SDS011;57702;44.420;20.298;2022-11-15T05:39:44;25.77;;;15.13;;
70297;SDS011;57702;44.420;20.298;2022-11-15T05:42:11;21.75;;;10.50;;
70297;SDS011;57702;44.420;20.298;2022-11-15T05:44:39;13.68;;;11.30;;
70297;SDS011;57702;44.420;20.298;2022-11-15T05:47:07;16.80;;;10.65;;
70297;SDS011;57702;44.420;20.298;2022-11-15T05:49:35;28.67;;;9.95;;
70297;SDS011;57702;44.420;20.298;2022-11-15T05:52:03;25.65;;;13.82;;
70297;SDS011;57702;44.420;20.298;2022-11-15T05:54:29;23.90;;;10.63;;
70297;SDS011;57702;44.420;20.298;2022-11-15T05:56:56;10.73;;;7.13;;
70297;SDS011;57702;44.420;20.298;2022-11-15T05:59:23;12.93;;;8.15;;
70297;SDS011;57702;44.420;20.298;2022-11-15T06:01:49;26.67;;;9.35;;
70297;SDS011;57702;44.420;20.298;2022-11-15T06:04:19;25.63;;;13.02;;
70297;SDS011;57702;44.420;20.298;2022-11-15T06:06:45;14.05;;;7.82;;
70297;SDS011;57702;44.420;20.298;2022-11-15T06:09:11;11.25;;;8.25;;
70297;SDS011;57702;44.420;20.298;2022-11-15T06:11:37;6.70;;;4.75;;
70297;SDS011;57702;44.420;20.298;2022-11-15T06:14:03;8.85;;;4.65;;
70297;SDS011;57702;44.420;20.298;2022-11-15T06:16:29;27.08;;;9.95;;
70297;SDS011;57702;44.420;20.298;2022-11-15T06:18:55;13.13;;;7.45;;
70297;SDS011;57702;44.420;20.298;2022-11-15T06:21:21;11.82;;;6.07;;
70297;SDS011;57702;44.420;20.298;2022-11-15T06:23:48;22.65;;;9.63;;
70297;SDS011;57702;44.420;20.298;2022-11-15T06:26:14;24.27;;;9.45;;
70297;SDS011;57702;44.420;20.298;2022-11-15T06:28:40;27.45;;;10.43;;
70297;SDS011;57702;44.420;20.298;2022-11-15T06:31:10;39.15;;;10.68;;
70297;SDS011;57702;44.420;20.298;2022-11-15T06:33:36;26.70;;;12.32;;
70297;SDS011;57702;44.420;20.298;2022-11-15T06:36:04;27.02;;;14.15;;
70297;SDS011;57702;44.420;20.298;2022-11-15T06:38:30;35.42;;;14.27;;
70297;SDS011;57702;44.420;20.298;2022-11-15T06:41:07;10.05;;;5.78;;
70297;SDS011;57702;44.420;20.298;2022-11-15T06:43:33;15.13;;;7.05;;
70297;SDS011;57702;44.420;20.298;2022-11-15T06:46:00;15.73;;;9.68;;
70297;SDS011;57702;44.420;20.298;2022-11-15T06:48:27;35.00;;;16.70;;
70297;SDS011;57702;44.420;20.298;2022-11-15T06:50:53;84.82;;;30.88;;
70297;SDS011;57702;44.420;20.298;2022-11-15T06:53:20;76.75;;;23.40;;
70297;SDS011;57702;44.420;20.298;2022-11-15T06:55:46;23.55;;;15.95;;
70297;SDS011;57702;44.420;20.298;2022-11-15T06:58:12;38.50;;;16.80;;
70297;SDS011;57702;44.420;20.298;2022-11-15T07:00:38;38.42;;;16.63;;
70297;SDS011;57702;44.420;20.298;2022-11-15T07:03:05;82.43;;;23.85;;
70297;SDS011;57702;44.420;20.298;2022-11-15T07:05:31;73.10;;;25.70;;
70297;SDS011;57702;44.420;20.298;2022-11-15T07:07:57;47.15;;;15.50;;
70297;SDS011;57702;44.420;20.298;2022-11-15T07:10:24;19.00;;;8.23;;
70297;SDS011;57702;44.420;20.298;2022-11-15T07:12:51;22.55;;;8.63;;
70297;SDS011;57702;44.420;20.298;2022-11-15T07:15:18;42.03;;;14.27;;
70297;SDS011;57702;44.420;20.298;2022-11-15T07:17:44;20.05;;;10.48;;
70297;SDS011;57702;44.420;20.298;2022-11-15T07:20:10;37.33;;;15.73;;
70297;SDS011;57702;44.420;20.298;2022-11-15T07:22:38;9.07;;;5.95;;
70297;SDS011;57702;44.420;20.298;2022-11-15T07:25:04;29.98;;;5.47;;
70297;SDS011;57702;44.420;20.298;2022-11-15T07:27:30;22.48;;;10.90;;
70297;SDS011;57702;44.420;20.298;2022-11-15T07:29:56;9.40;;;6.25;;
70297;SDS011;57702;44.420;20.298;2022-11-15T07:32:22;14.30;;;7.40;;
70297;SDS011;57702;44.420;20.298;2022-11-15T07:34:49;28.58;;;9.05;;
70297;SDS011;57702;44.420;20.298;2022-11-15T07:37:15;16.05;;;8.43;;
70297;SDS011;57702;44.420;20.298;2022-11-15T07:39:42;24.23;;;8.35;;
70297;SDS011;57702;44.420;20.298;2022-11-15T07:42:08;19.42;;;6.90;;
70297;SDS011;57702;44.420;20.298;2022-11-15T07:44:53;16.85;;;7.93;;
70297;SDS011;57702;44.420;20.298;2022-11-15T07:47:19;19.08;;;10.15;;
70297;SDS011;57702;44.420;20.298;2022-11-15T07:49:46;33.65;;;10.13;;
70297;SDS011;57702;44.420;20.298;2022-11-15T07:52:12;16.90;;;9.85;;
70297;SDS011;57702;44.420;20.298;2022-11-15T07:54:39;15.60;;;8.98;;
70297;SDS011;57702;44.420;20.298;2022-11-15T07:57:05;18.15;;;9.07;;
70297;SDS011;57702;44.420;20.298;2022-11-15T07:59:34;13.15;;;7.55;;
70297;SDS011;57702;44.420;20.298;2022-11-15T08:02:00;12.88;;;6.93;;
70297;SDS011;57702;44.420;20.298;2022-11-15T08:04:26;19.48;;;9.32;;
70297;SDS011;57702;44.420;20.298;2022-11-15T08:06:52;16.95;;;9.13;;
70297;SDS011;57702;44.420;20.298;2022-11-15T08:09:18;31.33;;;13.50;;
70297;SDS011;57702;44.420;20.298;2022-11-15T08:11:44;11.35;;;8.88;;
70297;SDS011;57702;44.420;20.298;2022-11-15T08:14:10;11.80;;;5.80;;
70297;SDS011;57702;44.420;20.298;2022-11-15T08:16:36;22.98;;;8.82;;
70297;SDS011;57702;44.420;20.298;2022-11-15T08:19:02;9.75;;;6.90;;
70297;SDS011;57702;44.420;20.298;2022-11-15T08:21:28;28.08;;;9.68;;
70297;SDS011;57702;44.420;20.298;2022-11-15T08:23:54;21.30;;;9.82;;
70297;SDS011;57702;44.420;20.298;2022-11-15T08:26:21;10.43;;;6.50;;
70297;SDS011;57702;44.420;20.298;2022-11-15T08:28:47;12.60;;;7.03;;
70297;SDS011;57702;44.420;20.298;2022-11-15T08:31:14;34.28;;;12.30;;
70297;SDS011;57702;44.420;20.298;2022-11-15T08:33:42;12.48;;;6.40;;
70297;SDS011;57702;44.420;20.298;2022-11-15T08:36:11;14.82;;;9.70;;
70297;SDS011;57702;44.420;20.298;2022-11-15T08:38:38;15.05;;;7.10;;
70297;SDS011;57702;44.420;20.298;2022-11-15T08:41:04;13.98;;;5.38;;
70297;SDS011;57702;44.420;20.298;2022-11-15T08:43:31;23.63;;;7.28;;
70297;SDS011;57702;44.420;20.298;2022-11-15T08:45:57;14.00;;;8.38;;
70297;SDS011;57702;44.420;20.298;2022-11-15T08:48:23;14.27;;;6.22;;
70297;SDS011;57702;44.420;20.298;2022-11-15T08:50:53;13.38;;;5.90;;
70297;SDS011;57702;44.420;20.298;2022-11-15T08:53:19;17.23;;;7.00;;
70297;SDS011;57702;44.420;20.298;2022-11-15T08:55:45;12.45;;;5.97;;
70297;SDS011;57702;44.420;20.298;2022-11-15T08:58:11;9.10;;;5.30;;
70297;SDS011;57702;44.420;20.298;2022-11-15T09:00:37;15.95;;;5.07;;
70297;SDS011;57702;44.420;20.298;2022-11-15T09:03:04;7.60;;;5.47;;
70297;SDS011;57702;44.420;20.298;2022-11-15T09:05:31;4.80;;;4.38;;
70297;SDS011;57702;44.420;20.298;2022-11-15T09:07:58;3.95;;;3.65;;
70297;SDS011;57702;44.420;20.298;2022-11-15T09:10:24;3.72;;;3.40;;
70297;SDS011;57702;44.420;20.298;2022-11-15T09:12:50;8.85;;;5.97;;
70297;SDS011;57702;44.420;20.298;2022-11-15T09:15:16;12.93;;;6.13;;
70297;SDS011;57702;44.420;20.298;2022-11-15T09:17:42;9.70;;;4.95;;
70297;SDS011;57702;44.420;20.298;2022-11-15T09:20:09;12.00;;;5.80;;
70297;SDS011;57702;44.420;20.298;2022-11-15T09:22:35;4.65;;;3.15;;
70297;SDS011;57702;44.420;20.298;2022-11-15T09:25:03;23.02;;;8.10;;
70297;SDS011;57702;44.420;20.298;2022-11-15T09:27:30;5.40;;;4.65;;
70297;SDS011;57702;44.420;20.298;2022-11-15T09:29:57;6.20;;;4.43;;
70297;SDS011;57702;44.420;20.298;2022-11-15T09:32:23;8.70;;;4.75;;
70297;SDS011;57702;44.420;20.298;2022-11-15T09:34:53;8.68;;;4.57;;
70297;SDS011;57702;44.420;20.298;2022-11-15T09:37:19;8.45;;;5.22;;
70297;SDS011;57702;44.420;20.298;2022-11-15T09:39:45;7.20;;;5.18;;
70297;SDS011;57702;44.420;20.298;2022-11-15T09:42:22;8.98;;;4.43;;
70297;SDS011;57702;44.420;20.298;2022-11-15T09:50:11;5.40;;;4.18;;
70297;SDS011;57702;44.420;20.298;2022-11-15T09:52:39;14.77;;;6.53;;
70297;SDS011;57702;44.420;20.298;2022-11-15T09:55:08;3.88;;;3.20;;
70297;SDS011;57702;44.420;20.298;2022-11-15T09:57:40;6.72;;;4.53;;
70297;SDS011;57702;44.420;20.298;2022-11-15T10:00:09;5.47;;;3.00;;
70297;SDS011;57702;44.420;20.298;2022-11-15T10:05:22;10.55;;;3.72;;
70297;SDS011;57702;44.420;20.298;2022-11-15T10:07:52;28.23;;;6.57;;
70297;SDS011;57702;44.420;20.298;2022-11-15T10:10:26;10.88;;;4.53;;
70297;SDS011;57702;44.420;20.298;2022-11-15T10:12:53;7.13;;;4.68;;
70297;SDS011;57702;44.420;20.298;2022-11-15T10:15:19;24.38;;;7.95;;
70297;SDS011;57702;44.420;20.298;2022-11-15T10:20:26;12.77;;;7.47;;
70297;SDS011;57702;44.420;20.298;2022-11-15T10:22:56;10.07;;;7.20;;
70297;SDS011;57702;44.420;20.298;2022-11-15T10:25:25;9.13;;;6.00;;
70297;SDS011;57702;44.420;20.298;2022-11-15T10:27:56;13.93;;;5.70;;
70297;SDS011;57702;44.420;20.298;2022-11-15T10:30:23;11.73;;;4.28;;
70297;SDS011;57702;44.420;20.298;2022-11-15T10:32:49;8.85;;;4.72;;
70297;SDS011;57702;44.420;20.298;2022-11-15T10:35:17;23.45;;;9.10;;
70297;SDS011;57702;44.420;20.298;2022-11-15T10:37:43;10.77;;;5.07;;
70297;SDS011;57702;44.420;20.298;2022-11-15T10:40:17;8.60;;;4.30;;
70297;SDS011;57702;44.420;20.298;2022-11-15T10:42:44;8.35;;;5.70;;
70297;SDS011;57702;44.420;20.298;2022-11-15T10:45:27;16.27;;;7.75;;
70297;SDS011;57702;44.420;20.298;2022-11-15T10:47:54;10.43;;;5.18;;
70297;SDS011;57702;44.420;20.298;2022-11-15T10:50:40;9.85;;;6.55;;
70297;SDS011;57702;44.420;20.298;2022-11-15T10:53:18;4.93;;;4.30;;
70297;SDS011;57702;44.420;20.298;2022-11-15T10:55:49;8.27;;;4.57;;
70297;SDS011;57702;44.420;20.298;2022-11-15T10:58:20;7.88;;;5.97;;
70297;SDS011;57702;44.420;20.298;2022-11-15T11:00:47;6.27;;;4.10;;
70297;SDS011;57702;44.420;20.298;2022-11-15T11:03:29;6.15;;;3.70;;
70297;SDS011;57702;44.420;20.298;2022-11-15T11:06:03;3.38;;;2.60;;
70297;SDS011;57702;44.420;20.298;2022-11-15T11:08:30;4.65;;;2.75;;
70297;SDS011;57702;44.420;20.298;2022-11-15T11:10:57;6.70;;;3.80;;
70297;SDS011;57702;44.420;20.298;2022-11-15T11:16:36;10.82;;;5.07;;
70297;SDS011;57702;44.420;20.298;2022-11-15T11:23:51;12.82;;;5.50;;
70297;SDS011;57702;44.420;20.298;2022-11-15T11:37:03;9.70;;;4.80;;
70297;SDS011;57702;44.420;20.298;2022-11-15T11:42:03;16.15;;;6.07;;
70297;SDS011;57702;44.420;20.298;2022-11-15T11:44:34;12.15;;;6.07;;
70297;SDS011;57702;44.420;20.298;2022-11-15T11:52:01;9.50;;;5.40;;
70297;SDS011;57702;44.420;20.298;2022-11-15T11:55:12;10.05;;;5.32;;
70297;SDS011;57702;44.420;20.298;2022-11-15T11:57:39;29.35;;;11.45;;
70297;SDS011;57702;44.420;20.298;2022-11-15T12:00:19;27.25;;;9.95;;
70297;SDS011;57702;44.420;20.298;2022-11-15T12:05:34;12.48;;;7.68;;
70297;SDS011;57702;44.420;20.298;2022-11-15T12:08:09;7.57;;;5.15;;
70297;SDS011;57702;44.420;20.298;2022-11-15T12:10:40;18.33;;;7.63;;
70297;SDS011;57702;44.420;20.298;2022-11-15T12:13:10;9.95;;;5.65;;
70297;SDS011;57702;44.420;20.298;2022-11-15T12:15:45;16.55;;;6.68;;
70297;SDS011;57702;44.420;20.298;2022-11-15T12:18:13;12.75;;;5.82;;
70297;SDS011;57702;44.420;20.298;2022-11-15T12:20:41;13.55;;;6.10;;
70297;SDS011;57702;44.420;20.298;2022-11-15T12:23:16;16.60;;;5.07;;
70297;SDS011;57702;44.420;20.298;2022-11-15T12:31:30;15.05;;;4.28;;
70297;SDS011;57702;44.420;20.298;2022-11-15T12:33:48;6.28;;;3.80;;
70297;SDS011;57702;44.420;20.298;2022-11-15T12:38:57;19.73;;;4.95;;
70297;SDS011;57702;44.420;20.298;2022-11-15T12:41:27;5.72;;;3.97;;
70297;SDS011;57702;44.420;20.298;2022-11-15T12:43:53;6.90;;;3.28;;
70297;SDS011;57702;44.420;20.298;2022-11-15T12:46:21;9.10;;;5.00;;
70297;SDS011;57702;44.420;20.298;2022-11-15T12:48:49;13.82;;;5.93;;
70297;SDS011;57702;44.420;20.298;2022-11-15T12:51:16;9.75;;;5.35;;
70297;SDS011;57702;44.420;20.298;2022-11-15T12:53:42;9.85;;;5.90;;
70297;SDS011;57702;44.420;20.298;2022-11-15T12:58:44;5.63;;;4.88;;
70297;SDS011;57702;44.420;20.298;2022-11-15T13:06:41;22.38;;;9.25;;
70297;SDS011;57702;44.420;20.298;2022-11-15T13:12:06;17.83;;;8.30;;
70297;SDS011;57702;44.420;20.298;2022-11-15T13:19:48;33.10;;;12.35;;
70297;SDS011;57702;44.420;20.298;2022-11-15T13:22:14;9.93;;;5.88;;
70297;SDS011;57702;44.420;20.298;2022-11-15T13:25:03;16.25;;;5.50;;
70297;SDS011;57702;44.420;20.298;2022-11-15T13:27:29;14.02;;;4.70;;
70297;SDS011;57702;44.420;20.298;2022-11-15T13:29:55;14.38;;;5.97;;
70297;SDS011;57702;44.420;20.298;2022-11-15T13:32:21;13.32;;;5.05;;
70297;SDS011;57702;44.420;20.298;2022-11-15T13:34:48;8.50;;;5.50;;
70297;SDS011;57702;44.420;20.298;2022-11-15T13:39:47;36.60;;;9.15;;
70297;SDS011;57702;44.420;20.298;2022-11-15T13:42:14;16.67;;;6.15;;
70297;SDS011;57702;44.420;20.298;2022-11-15T13:44:41;10.10;;;5.78;;
70297;SDS011;57702;44.420;20.298;2022-11-15T13:47:20;12.07;;;6.22;;
70297;SDS011;57702;44.420;20.298;2022-11-15T13:49:46;5.93;;;5.25;;
70297;SDS011;57702;44.420;20.298;2022-11-15T13:52:13;9.25;;;5.22;;
70297;SDS011;57702;44.420;20.298;2022-11-15T13:54:45;16.70;;;5.68;;
70297;SDS011;57702;44.420;20.298;2022-11-15T13:57:20;8.73;;;5.03;;
70297;SDS011;57702;44.420;20.298;2022-11-15T14:00:01;9.65;;;4.55;;
70297;SDS011;57702;44.420;20.298;2022-11-15T14:02:29;12.55;;;4.07;;
70297;SDS011;57702;44.420;20.298;2022-11-15T14:04:57;8.50;;;4.28;;
70297;SDS011;57702;44.420;20.298;2022-11-15T14:07:26;10.85;;;4.25;;
70297;SDS011;57702;44.420;20.298;2022-11-15T14:09:52;15.75;;;5.88;;
70297;SDS011;57702;44.420;20.298;2022-11-15T14:14:51;10.38;;;5.03;;
70297;SDS011;57702;44.420;20.298;2022-11-15T14:17:32;10.40;;;4.65;;
70297;SDS011;57702;44.420;20.298;2022-11-15T14:19:59;9.83;;;3.97;;
70297;SDS011;57702;44.420;20.298;2022-11-15T14:22:26;10.68;;;4.38;;
70297;SDS011;57702;44.420;20.298;2022-11-15T14:27:38;13.07;;;5.32;;
70297;SDS011;57702;44.420;20.298;2022-11-15T14:30:04;17.85;;;5.15;;
70297;SDS011;57702;44.420;20.298;2022-11-15T14:32:41;20.30;;;5.40;;
70297;SDS011;57702;44.420;20.298;2022-11-15T14:35:12;35.83;;;7.68;;
70297;SDS011;57702;44.420;20.298;2022-11-15T14:37:39;20.50;;;5.97;;
70297;SDS011;57702;44.420;20.298;2022-11-15T14:40:06;22.33;;;8.43;;
70297;SDS011;57702;44.420;20.298;2022-11-15T14:42:34;11.68;;;3.63;;
70297;SDS011;57702;44.420;20.298;2022-11-15T14:45:00;5.32;;;2.78;;
70297;SDS011;57702;44.420;20.298;2022-11-15T14:47:27;7.60;;;3.33;;
70297;SDS011;57702;44.420;20.298;2022-11-15T14:49:53;6.72;;;3.42;;
70297;SDS011;57702;44.420;20.298;2022-11-15T14:54:45;8.70;;;4.18;;
70297;SDS011;57702;44.420;20.298;2022-11-15T14:57:11;8.52;;;4.53;;
70297;SDS011;57702;44.420;20.298;2022-11-15T14:59:37;8.27;;;4.20;;
70297;SDS011;57702;44.420;20.298;2022-11-15T15:02:08;15.82;;;5.45;;
70297;SDS011;57702;44.420;20.298;2022-11-15T15:04:38;10.70;;;4.80;;
70297;SDS011;57702;44.420;20.298;2022-11-15T15:07:04;13.52;;;5.72;;
70297;SDS011;57702;44.420;20.298;2022-11-15T15:09:30;28.30;;;9.05;;
70297;SDS011;57702;44.420;20.298;2022-11-15T15:11:56;12.95;;;5.85;;
70297;SDS011;57702;44.420;20.298;2022-11-15T15:14:22;12.07;;;6.05;;
70297;SDS011;57702;44.420;20.298;2022-11-15T15:16:48;30.70;;;7.63;;
70297;SDS011;57702;44.420;20.298;2022-11-15T15:19:14;30.63;;;9.75;;
70297;SDS011;57702;44.420;20.298;2022-11-15T15:21:41;19.65;;;7.75;;
70297;SDS011;57702;44.420;20.298;2022-11-15T15:24:08;23.45;;;7.25;;
70297;SDS011;57702;44.420;20.298;2022-11-15T15:26:39;17.23;;;7.38;;
70297;SDS011;57702;44.420;20.298;2022-11-15T15:29:05;23.50;;;7.20;;
70297;SDS011;57702;44.420;20.298;2022-11-15T15:31:34;17.17;;;6.43;;
70297;SDS011;57702;44.420;20.298;2022-11-15T15:34:00;21.58;;;7.97;;
70297;SDS011;57702;44.420;20.298;2022-11-15T15:36:26;19.73;;;6.05;;
70297;SDS011;57702;44.420;20.298;2022-11-15T15:38:53;27.58;;;8.00;;
70297;SDS011;57702;44.420;20.298;2022-11-15T15:41:19;17.13;;;7.80;;
70297;SDS011;57702;44.420;20.298;2022-11-15T15:43:46;31.33;;;12.25;;
70297;SDS011;57702;44.420;20.298;2022-11-15T15:46:17;94.22;;;24.77;;
70297;SDS011;57702;44.420;20.298;2022-11-15T15:48:43;40.15;;;13.88;;
70297;SDS011;57702;44.420;20.298;2022-11-15T15:51:09;130.55;;;27.23;;
70297;SDS011;57702;44.420;20.298;2022-11-15T15:53:36;155.63;;;34.15;;
70297;SDS011;57702;44.420;20.298;2022-11-15T15:56:03;162.98;;;33.38;;
70297;SDS011;57702;44.420;20.298;2022-11-15T15:58:29;44.72;;;16.23;;
70297;SDS011;57702;44.420;20.298;2022-11-15T16:00:57;41.38;;;13.00;;
70297;SDS011;57702;44.420;20.298;2022-11-15T16:03:23;23.15;;;9.55;;
70297;SDS011;57702;44.420;20.298;2022-11-15T16:05:49;42.83;;;12.23;;
70297;SDS011;57702;44.420;20.298;2022-11-15T16:08:22;51.63;;;14.07;;
70297;SDS011;57702;44.420;20.298;2022-11-15T16:10:48;62.20;;;11.40;;